Time;durP1;ratioP1;P1;durP2;ratioP2;P2;SDS_P1;SDS_P2;PMS_P1;PMS_P2;Temp;Humidity;BMP_temperature;BMP_pressure;BME280_temperature;BME280_humidity;BME280_pressure;Samples;Min_cycle;Max_cycle;Signal;HPM_P1;HPM_P2
2023/12/24 00:01:12;;;;;;;0.00;0.00;;;;;;;10.15;100.00;99861.44;4818997;29;20045;-74
2023/12/24 00:03:38;;;;;;;0.00;0.00;;;;;;;10.20;100.00;99864.16;4809480;29;20041;-76
2023/12/24 00:06:09;;;;;;;0.00;0.00;;;;;;;10.42;100.00;99890.38;4789214;29;20031;-77
2023/12/24 00:08:35;;;;;;;0.00;0.00;;;;;;;10.42;100.00;99893.09;4836988;29;20379;-76
2023/12/24 00:11:01;;;;;;;0.00;0.00;;;;;;;10.63;100.00;99891.94;4847339;29;20079;-76
2023/12/24 00:13:29;;;;;;;0.00;0.00;;;;;;;10.45;100.00;99849.66;4825904;29;20077;-76
2023/12/24 00:15:54;;;;;;;0.00;0.00;;;;;;;10.70;100.00;99882.59;4820837;29;20074;-76
2023/12/24 00:18:20;;;;;;;0.00;0.00;;;;;;;10.67;100.00;99878.50;4809932;29;20092;-77
2023/12/24 00:20:45;;;;;;;0.00;0.00;;;;;;;10.63;100.00;99878.25;4792006;29;20041;-76
2023/12/24 00:23:11;;;;;;;0.00;0.00;;;;;;;10.62;100.00;99876.63;4816348;29;20050;-76
2023/12/24 00:25:38;;;;;;;0.00;0.00;;;;;;;10.61;100.00;99849.56;4800093;29;20418;-76
2023/12/24 00:28:07;;;;;;;0.00;0.00;;;;;;;10.64;100.00;99851.72;4810739;29;20059;-77
2023/12/24 00:30:33;;;;;;;0.00;0.00;;;;;;;10.65;100.00;99845.97;4826219;29;20038;-76
2023/12/24 00:33:02;;;;;;;0.00;0.00;;;;;;;10.63;100.00;99833.69;4827313;29;20038;-78
2023/12/24 00:35:28;;;;;;;0.00;0.00;;;;;;;10.53;100.00;99823.63;4826112;29;20060;-77
2023/12/24 00:37:58;;;;;;;0.00;0.00;;;;;;;10.75;100.00;99847.06;4822998;29;20026;-77
2023/12/24 00:40:28;;;;;;;0.00;0.00;;;;;;;10.76;100.00;99860.44;4831043;29;20030;-75
2023/12/24 00:42:54;;;;;;;0.00;0.00;;;;;;;10.67;100.00;99833.94;4836603;29;20041;-75
2023/12/24 00:45:19;;;;;;;0.00;0.00;;;;;;;10.47;100.00;99808.34;4827504;29;20026;-76
2023/12/24 00:47:45;;;;;;;0.00;0.00;;;;;;;10.54;100.00;99840.84;4835618;29;20034;-76
2023/12/24 00:50:10;;;;;;;0.00;0.00;;;;;;;10.31;100.00;99805.66;4834385;29;20042;-76
2023/12/24 00:52:46;;;;;;;;;;;;;;;;;;;;;
2023/12/24 00:55:12;;;;;;;0.10;0.10;;;;;;;10.33;100.00;99818.22;4827660;29;20027;-75
2023/12/24 00:57:38;;;;;;;0.00;0.00;;;;;;;10.26;100.00;99813.03;4810809;29;20031;-75
2023/12/24 01:00:05;;;;;;;0.00;0.00;;;;;;;10.37;100.00;99824.81;4806847;29;20041;-75
2023/12/24 01:02:30;;;;;;;0.00;0.00;;;;;;;10.50;100.00;99839.75;4820826;29;20053;-74
2023/12/24 01:04:56;;;;;;;0.00;0.00;;;;;;;10.39;100.00;99828.88;4827327;29;20042;-75
2023/12/24 01:07:21;;;;;;;0.00;0.00;;;;;;;10.49;100.00;99838.94;4831412;29;20051;-75
2023/12/24 01:09:47;;;;;;;0.00;0.00;;;;;;;10.34;100.00;99804.31;4814736;29;20096;-74
2023/12/24 01:12:12;;;;;;;0.00;0.00;;;;;;;10.43;100.00;99812.75;4834971;29;20041;-74
2023/12/24 01:14:38;;;;;;;0.00;0.00;;;;;;;10.33;100.00;99807.28;4809848;29;20034;-76
2023/12/24 01:17:03;;;;;;;0.00;0.00;;;;;;;10.17;100.00;99782.75;4800710;29;20079;-76
2023/12/24 01:19:30;;;;;;;0.00;0.00;;;;;;;10.06;100.00;99779.25;4810334;29;20042;-75
2023/12/24 01:21:56;;;;;;;0.00;0.00;;;;;;;10.07;100.00;99777.31;4827129;29;20031;-75
2023/12/24 01:24:25;;;;;;;0.00;0.00;;;;;;;10.11;100.00;99795.59;4808499;29;20065;-75
2023/12/24 01:26:50;;;;;;;0.00;0.00;;;;;;;10.02;100.00;99769.16;4809976;29;20126;-76
2023/12/24 01:29:15;;;;;;;0.00;0.00;;;;;;;10.04;100.00;99788.81;4802660;29;20161;-76
2023/12/24 01:31:41;;;;;;;0.00;0.00;;;;;;;9.99;100.00;99772.41;4808197;29;20166;-75
2023/12/24 01:34:06;;;;;;;0.00;0.00;;;;;;;10.09;100.00;99786.03;4804591;29;20039;-75
2023/12/24 01:36:32;;;;;;;0.00;0.00;;;;;;;10.01;100.00;99778.44;4817922;29;20043;-75
2023/12/24 01:38:57;;;;;;;0.10;0.10;;;;;;;10.13;100.00;99792.59;4832379;29;20034;-74
2023/12/24 01:41:23;;;;;;;0.00;0.00;;;;;;;10.06;100.00;99775.66;4819154;29;20103;-74
2023/12/24 01:43:48;;;;;;;0.00;0.00;;;;;;;10.01;100.00;99762.03;4823324;29;20439;-74
2023/12/24 01:46:21;;;;;;;0.00;0.00;;;;;;;10.10;100.00;99765.81;4829421;29;20027;-77
2023/12/24 01:48:49;;;;;;;0.00;0.00;;;;;;;10.19;100.00;99775.09;4819876;29;20031;-74
2023/12/24 01:51:19;;;;;;;0.00;0.00;;;;;;;10.23;100.00;99781.63;4818764;29;20030;-76
2023/12/24 01:53:47;;;;;;;0.08;0.08;;;;;;;10.20;100.00;99764.97;4821678;29;20027;-76
2023/12/24 01:56:15;;;;;;;0.00;0.00;;;;;;;10.12;100.00;99747.25;4823149;29;20064;-74
2023/12/24 01:58:43;;;;;;;0.00;0.00;;;;;;;10.26;100.00;99780.25;4821795;29;20059;-75
2023/12/24 02:01:09;;;;;;;0.00;0.00;;;;;;;10.18;100.00;99765.25;4826335;29;20032;-75
2023/12/24 02:03:35;;;;;;;0.00;0.00;;;;;;;10.17;100.00;99739.03;4819667;29;20113;-74
2023/12/24 02:06:03;;;;;;;0.00;0.00;;;;;;;10.16;100.00;99753.78;4814530;29;20038;-74
2023/12/24 02:08:29;;;;;;;0.00;0.00;;;;;;;10.29;100.00;99766.84;4830933;29;20123;-74
2023/12/24 02:10:54;;;;;;;0.00;0.00;;;;;;;10.12;100.00;99731.69;4826938;29;20109;-75
2023/12/24 02:13:23;;;;;;;0.00;0.00;;;;;;;10.16;100.00;99731.91;4830862;29;20053;-76
2023/12/24 02:15:55;;;;;;;0.00;0.00;;;;;;;10.27;100.00;99771.78;4843377;29;20117;-74
2023/12/24 02:18:21;;;;;;;0.00;0.00;;;;;;;10.16;100.00;99737.38;4820264;29;20542;-73
2023/12/24 02:20:47;;;;;;;0.10;0.10;;;;;;;10.19;100.00;99734.13;4832626;29;20046;-73
2023/12/24 02:23:12;;;;;;;0.00;0.00;;;;;;;10.28;100.00;99737.88;4828760;29;20033;-74
2023/12/24 02:25:38;;;;;;;0.00;0.00;;;;;;;10.24;100.00;99734.06;4805246;29;20042;-74
2023/12/24 02:28:14;;;;;;;0.00;0.00;;;;;;;10.24;100.00;99753.19;4819276;29;20027;-75
2023/12/24 02:30:47;;;;;;;0.05;0.05;;;;;;;10.26;100.00;99740.06;4830558;29;20030;-74
2023/12/24 02:33:15;;;;;;;0.00;0.00;;;;;;;10.37;100.00;99756.47;4832821;29;20023;-74
2023/12/24 02:35:43;;;;;;;0.00;0.00;;;;;;;10.35;100.00;99747.72;4826529;29;20528;-75
2023/12/24 02:38:09;;;;;;;0.10;0.10;;;;;;;10.37;100.00;99753.75;4837925;29;20031;-76
2023/12/24 02:40:37;;;;;;;0.00;0.00;;;;;;;10.26;100.00;99729.13;4820431;29;20037;-75
2023/12/24 02:43:03;;;;;;;0.00;0.00;;;;;;;10.38;100.00;99734.31;4821904;29;20105;-74
2023/12/24 02:45:28;;;;;;;0.00;0.00;;;;;;;10.39;100.00;99737.88;4819542;29;20055;-75
2023/12/24 02:47:54;;;;;;;0.00;0.00;;;;;;;10.43;100.00;99734.28;4819381;29;20033;-73
2023/12/24 02:50:22;;;;;;;0.00;0.00;;;;;;;10.38;100.00;99730.75;4820042;29;20031;-74
2023/12/24 02:52:47;;;;;;;0.00;0.00;;;;;;;10.39;100.00;99729.66;4832458;29;20122;-74
2023/12/24 02:55:13;;;;;;;0.00;0.00;;;;;;;10.37;100.00;99710.00;4830854;29;20054;-74
2023/12/24 02:57:49;;;;;;;0.00;0.00;;;;;;;10.47;100.00;99745.50;4820161;29;20530;-75
2023/12/24 03:00:35;;;;;;;0.00;0.00;;;;;;;10.34;100.00;99716.00;4848252;29;20030;-74
2023/12/24 03:03:02;;;;;;;0.00;0.00;;;;;;;10.31;100.00;99718.19;4844277;29;20179;-75
2023/12/24 03:05:28;;;;;;;0.00;0.00;;;;;;;10.46;100.00;99730.19;4838492;29;20430;-75
2023/12/24 03:07:56;;;;;;;0.00;0.00;;;;;;;10.53;100.00;99752.56;4833901;29;20111;-75
2023/12/24 03:10:21;;;;;;;0.00;0.00;;;;;;;10.53;100.00;99749.81;4797935;29;20397;-74
2023/12/24 03:12:46;;;;;;;0.00;0.00;;;;;;;10.60;100.00;99755.78;4846038;29;20131;-75
2023/12/24 03:15:12;;;;;;;0.00;0.00;;;;;;;10.57;100.00;99731.75;4826993;29;20436;-74
2023/12/24 03:17:37;;;;;;;0.00;0.00;;;;;;;10.43;100.00;99714.34;4838481;29;20027;-75
2023/12/24 03:20:09;;;;;;;0.00;0.00;;;;;;;10.46;100.00;99722.78;4835907;29;20027;-74
2023/12/24 03:22:35;;;;;;;0.00;0.00;;;;;;;10.50;100.00;99720.31;4845789;29;20033;-74
2023/12/24 03:25:00;;;;;;;0.08;0.08;;;;;;;10.50;100.00;99714.84;4825948;29;20026;-75
2023/12/24 03:27:26;;;;;;;0.00;0.00;;;;;;;10.48;100.00;99714.28;4797719;29;20360;-75
2023/12/24 03:29:55;;;;;;;0.00;0.00;;;;;;;10.49;100.00;99699.53;4825516;29;20034;-74
2023/12/24 03:32:20;;;;;;;0.00;0.00;;;;;;;10.52;100.00;99700.91;4812295;29;20067;-75
2023/12/24 03:34:46;;;;;;;0.00;0.00;;;;;;;10.60;100.00;99714.78;4810239;29;20027;-74
2023/12/24 03:37:11;;;;;;;0.00;0.00;;;;;;;10.61;100.00;99710.94;4808332;29;20027;-74
2023/12/24 03:39:36;;;;;;;0.00;0.00;;;;;;;10.56;100.00;99696.50;4828698;29;20031;-75
2023/12/24 03:42:02;;;;;;;0.00;0.00;;;;;;;10.50;100.00;99671.13;4824508;29;20030;-75
2023/12/24 03:44:27;;;;;;;0.00;0.00;;;;;;;10.62;100.00;99707.09;4810533;29;20037;-76
2023/12/24 03:46:53;;;;;;;0.00;0.00;;;;;;;10.71;100.00;99731.13;4818210;29;20031;-75
2023/12/24 03:49:20;;;;;;;0.00;0.00;;;;;;;10.57;100.00;99696.22;4821293;29;20038;-76
2023/12/24 03:51:47;;;;;;;0.00;0.00;;;;;;;10.70;100.00;99729.47;4818164;29;20039;-76
2023/12/24 03:54:13;;;;;;;0.00;0.00;;;;;;;10.63;100.00;99697.81;4830263;29;20046;-75
2023/12/24 03:56:38;;;;;;;0.00;0.00;;;;;;;10.60;100.00;99695.66;4827104;29;20030;-75
2023/12/24 03:59:04;;;;;;;0.00;0.00;;;;;;;10.57;100.00;99693.47;4808968;29;20040;-75
2023/12/24 04:01:31;;;;;;;0.00;0.00;;;;;;;10.78;100.00;99716.00;4835011;29;20212;-75
2023/12/24 04:03:57;;;;;;;0.00;0.00;;;;;;;10.78;100.00;99721.50;4794081;29;20038;-76
2023/12/24 04:06:22;;;;;;;0.00;0.00;;;;;;;10.61;100.00;99688.25;4816680;29;20492;-77
2023/12/24 04:08:48;;;;;;;0.00;0.00;;;;;;;10.58;100.00;99673.22;4828720;29;20062;-76
2023/12/24 04:11:17;;;;;;;0.00;0.00;;;;;;;10.78;100.00;99698.81;4808757;29;20031;-75
2023/12/24 04:13:43;;;;;;;0.10;0.10;;;;;;;10.54;100.00;99654.94;4820100;29;21760;-75
2023/12/24 04:16:09;;;;;;;0.00;0.00;;;;;;;10.70;100.00;99680.25;4816809;29;20045;-75
2023/12/24 04:18:34;;;;;;;0.00;0.00;;;;;;;10.62;100.00;99657.88;4822192;29;20038;-77
2023/12/24 04:21:00;;;;;;;0.00;0.00;;;;;;;10.67;100.00;99653.50;4802281;29;20030;-76
2023/12/24 04:23:26;;;;;;;0.00;0.00;;;;;;;10.76;100.00;99668.16;4830063;29;20163;-76
2023/12/24 04:25:51;;;;;;;0.00;0.00;;;;;;;10.73;100.00;99657.81;4814447;29;20045;-75
2023/12/24 04:28:17;;;;;;;0.00;0.00;;;;;;;10.69;100.00;99651.28;4830278;29;20029;-77
2023/12/24 04:30:42;;;;;;;0.00;0.00;;;;;;;10.87;100.00;99663.44;4816808;29;20041;-75
2023/12/24 04:33:08;;;;;;;0.00;0.00;;;;;;;10.86;100.00;99673.56;4820233;29;20063;-75
2023/12/24 04:35:33;;;;;;;0.00;0.00;;;;;;;10.81;100.00;99660.75;4833218;29;20039;-74
2023/12/24 04:37:59;;;;;;;0.00;0.00;;;;;;;10.88;100.00;99674.09;4826071;29;20031;-76
2023/12/24 04:40:25;;;;;;;0.00;0.00;;;;;;;10.90;100.00;99674.63;4806903;29;20042;-75
2023/12/24 04:42:50;;;;;;;0.00;0.00;;;;;;;10.90;100.00;99666.41;4823170;29;20482;-75
2023/12/24 04:45:16;;;;;;;0.00;0.00;;;;;;;10.86;100.00;99668.09;4810377;29;20121;-76
2023/12/24 04:47:44;;;;;;;0.00;0.00;;;;;;;10.90;100.00;99663.69;4821676;29;20035;-76
2023/12/24 04:50:09;;;;;;;0.00;0.00;;;;;;;10.90;100.00;99658.22;4814543;29;20117;-74
2023/12/24 04:52:38;;;;;;;0.00;0.00;;;;;;;10.90;100.00;99669.16;4819394;29;20022;-75
2023/12/24 04:55:04;;;;;;;0.00;0.00;;;;;;;10.92;100.00;99656.03;4792455;29;20030;-75
2023/12/24 04:57:30;;;;;;;0.00;0.00;;;;;;;10.86;100.00;99645.41;4836849;29;20118;-76
2023/12/24 04:59:55;;;;;;;0.00;0.00;;;;;;;10.80;100.00;99636.41;4806087;29;20071;-75
2023/12/24 05:02:21;;;;;;;0.00;0.00;;;;;;;10.84;100.00;99653.91;4814093;29;20057;-75
2023/12/24 05:04:48;;;;;;;0.00;0.00;;;;;;;10.81;100.00;99646.25;4800966;29;20122;-75
2023/12/24 05:07:14;;;;;;;0.00;0.00;;;;;;;10.74;100.00;99627.44;4830192;29;20107;-75
2023/12/24 05:09:40;;;;;;;0.00;0.00;;;;;;;10.81;100.00;99640.78;4834085;29;20067;-74
2023/12/24 05:12:06;;;;;;;0.00;0.00;;;;;;;10.67;100.00;99631.63;4804084;29;20030;-76
2023/12/24 05:14:33;;;;;;;0.00;0.00;;;;;;;10.68;100.00;99627.78;4825497;29;20026;-76
2023/12/24 05:16:59;;;;;;;0.00;0.00;;;;;;;10.76;100.00;99630.72;4822283;29;20018;-75
2023/12/24 05:19:24;;;;;;;0.00;0.00;;;;;;;10.74;100.00;99634.84;4821467;29;20057;-74
2023/12/24 05:21:50;;;;;;;0.00;0.00;;;;;;;10.78;100.00;99657.78;4809110;29;20102;-76
2023/12/24 05:24:15;;;;;;;0.00;0.00;;;;;;;10.82;100.00;99667.06;4798161;29;20046;-75
2023/12/24 05:26:41;;;;;;;0.00;0.00;;;;;;;10.86;100.00;99648.94;4798392;29;20845;-75
2023/12/24 05:29:08;;;;;;;0.00;0.00;;;;;;;10.67;100.00;99615.22;4828587;29;20060;-75
2023/12/24 05:31:41;;;;;;;0.00;0.00;;;;;;;10.85;100.00;99644.59;4826636;29;20023;-75
2023/12/24 05:34:07;;;;;;;0.10;0.10;;;;;;;10.78;100.00;99628.50;4824230;29;20063;-76
2023/12/24 05:36:34;;;;;;;0.00;0.00;;;;;;;10.90;100.00;99652.75;4809925;29;20045;-76
2023/12/24 05:38:59;;;;;;;0.00;0.00;;;;;;;10.89;100.00;99661.22;4820036;29;20030;-76
2023/12/24 05:41:28;;;;;;;0.00;0.00;;;;;;;10.96;100.00;99651.59;4810632;29;20347;-74
2023/12/24 05:43:53;;;;;;;0.00;0.00;;;;;;;10.98;100.00;99654.88;4826805;29;20545;-75
2023/12/24 05:46:20;;;;;;;0.00;0.00;;;;;;;10.86;100.00;99618.06;4816791;29;20043;-75
2023/12/24 05:48:45;;;;;;;0.00;0.00;;;;;;;10.98;100.00;99643.09;4803115;29;20094;-75
2023/12/24 05:51:11;;;;;;;0.00;0.00;;;;;;;10.95;100.00;99630.81;4823302;29;20030;-74
2023/12/24 05:53:36;;;;;;;0.10;0.10;;;;;;;10.90;100.00;99619.91;4810618;29;20054;-77
2023/12/24 05:56:02;;;;;;;0.00;0.00;;;;;;;10.89;100.00;99623.75;4801593;29;20068;-74
2023/12/24 05:58:27;;;;;;;0.00;0.00;;;;;;;10.84;100.00;99621.06;4801188;29;20041;-76
2023/12/24 06:00:56;;;;;;;0.00;0.00;;;;;;;10.81;100.00;99616.97;4812238;29;20049;-75
2023/12/24 06:03:21;;;;;;;0.00;0.00;;;;;;;10.79;100.00;99621.09;4808364;29;20034;-75
2023/12/24 06:05:47;;;;;;;0.00;0.00;;;;;;;10.79;100.00;99630.16;4815074;29;20023;-78
2023/12/24 06:08:33;;;;;;;0.00;0.00;;;;;;;10.93;100.00;99643.16;4825151;29;20100;-76
2023/12/24 06:11:08;;;;;;;0.00;0.00;;;;;;;10.77;100.00;99620.59;4819527;29;20061;-78
2023/12/24 06:13:39;;;;;;;0.00;0.00;;;;;;;10.88;100.00;99621.31;4812707;29;20463;-79
2023/12/24 06:16:24;;;;;;;0.00;0.00;;;;;;;10.77;100.00;99590.50;4813671;29;20126;-77
2023/12/24 06:18:50;;;;;;;0.00;0.00;;;;;;;10.94;100.00;99615.50;4799724;29;20055;-76
2023/12/24 06:21:15;;;;;;;0.10;0.10;;;;;;;10.96;100.00;99613.28;4807725;29;20543;-76
2023/12/24 06:23:45;;;;;;;0.00;0.00;;;;;;;10.91;100.00;99601.59;4812286;29;20027;-76
2023/12/24 06:26:21;;;;;;;0.00;0.00;;;;;;;10.93;100.00;99602.13;4796431;29;20057;-76
2023/12/24 06:29:04;;;;;;;0.00;0.00;;;;;;;10.80;100.00;99581.72;4820086;29;20026;-76
2023/12/24 06:31:38;;;;;;;0.00;0.00;;;;;;;10.95;100.00;99595.25;4805843;29;20030;-77
2023/12/24 06:34:13;;;;;;;;;;;;;;;;;;;;;
2023/12/24 06:36:41;;;;;;;0.00;0.00;;;;;;;11.00;100.00;99608.06;4817084;29;20042;-75
2023/12/24 06:39:09;;;;;;;0.00;0.00;;;;;;;11.05;100.00;99615.41;4818423;29;20027;-75
2023/12/24 06:41:35;;;;;;;0.10;0.10;;;;;;;11.11;100.00;99633.41;4807630;29;20086;-76
2023/12/24 06:44:08;;;;;;;0.00;0.00;;;;;;;11.02;100.00;99610.50;4813429;29;20039;-76
2023/12/24 06:46:33;;;;;;;0.00;0.00;;;;;;;11.11;100.00;99614.25;4831153;29;20105;-76
2023/12/24 06:48:59;;;;;;;0.00;0.00;;;;;;;11.18;100.00;99620.19;4831025;29;20454;-76
2023/12/24 06:51:29;;;;;;;0.00;0.00;;;;;;;11.16;100.00;99619.69;4806484;29;20037;-76
2023/12/24 06:54:09;;;;;;;0.00;0.00;;;;;;;11.06;100.00;99611.56;4799569;29;20126;-76
2023/12/24 06:56:56;;;;;;;0.00;0.00;;;;;;;11.05;100.00;99607.19;4811354;29;20038;-76
2023/12/24 06:59:56;;;;;;;0.00;0.00;;;;;;;11.05;100.00;99599.00;4795715;29;20322;-76
2023/12/24 07:02:59;;;;;;;0.00;0.00;;;;;;;11.27;100.00;99650.47;4823531;29;20021;-77
2023/12/24 07:05:35;;;;;;;;;;;;;;;;;;;;;
2023/12/24 07:08:17;;;;;;;;;;;;;;;;;;;;;
2023/12/24 07:10:52;;;;;;;0.00;0.00;;;;;;;11.07;100.00;99613.19;4804110;29;20037;-76
2023/12/24 07:13:51;;;;;;;0.00;0.00;;;;;;;11.02;100.00;99613.25;4819578;29;20088;-76
2023/12/24 07:16:29;;;;;;;;;;;;;;;;;;;;;
2023/12/24 07:19:08;;;;;;;;;;;;;;;;;;;;;
2023/12/24 07:21:51;;;;;;;;;;;;;;;;;;;;;
2023/12/24 07:24:50;;;;;;;0.00;0.00;;;;;;;11.14;100.00;99619.97;4807117;29;20023;-77
2023/12/24 07:27:26;;;;;;;;;;;;;;;;;;;;;
2023/12/24 07:29:57;;;;;;;0.00;0.00;;;;;;;11.17;100.00;99618.59;4813024;29;20023;-76
2023/12/24 07:32:29;;;;;;;0.00;0.00;;;;;;;11.38;100.00;99648.47;4811924;29;20110;-76
2023/12/24 07:34:58;;;;;;;0.00;0.00;;;;;;;11.13;100.00;99595.63;4814317;29;20027;-76
2023/12/24 07:37:24;;;;;;;0.00;0.00;;;;;;;11.16;100.00;99578.63;4816455;29;20426;-76
2023/12/24 07:39:54;;;;;;;0.00;0.00;;;;;;;11.18;100.00;99576.41;4815875;29;20030;-75
2023/12/24 07:42:20;;;;;;;0.10;0.10;;;;;;;11.41;100.00;99628.72;4821156;29;20036;-76
2023/12/24 07:47:57;;;;;;;;;;;;;;;;;;;;;
2023/12/24 09:20:58;;;;;;;0.00;0.00;;;;;;;12.48;100.00;99628.41;4805111;29;20082;-76
2023/12/24 09:23:24;;;;;;;0.00;0.00;;;;;;;12.49;100.00;99641.03;4829593;29;20046;-75
2023/12/24 09:25:49;;;;;;;0.00;0.00;;;;;;;12.36;100.00;99615.97;4809998;29;20035;-76
2023/12/24 09:28:14;;;;;;;0.00;0.00;;;;;;;12.38;100.00;99597.31;4803669;29;20038;-76
2023/12/24 09:30:42;;;;;;;0.00;0.00;;;;;;;12.43;100.00;99615.59;4805963;29;20033;-75
2023/12/24 09:33:08;;;;;;;0.00;0.00;;;;;;;12.38;100.00;99613.75;4810703;29;20041;-75
2023/12/24 09:35:35;;;;;;;0.00;0.00;;;;;;;12.51;100.00;99616.84;4816331;29;20643;-76
2023/12/24 09:38:01;;;;;;;0.00;0.00;;;;;;;12.39;100.00;99615.38;4818967;29;20037;-76
2023/12/24 09:40:26;;;;;;;0.00;0.00;;;;;;;12.45;100.00;99629.00;4825687;29;20030;-76
2023/12/24 09:43:02;;;;;;;0.00;0.00;;;;;;;12.43;100.00;99614.81;4824939;29;20041;-76
2023/12/24 09:45:33;;;;;;;0.00;0.00;;;;;;;12.52;100.00;99634.94;4811985;29;20049;-75
2023/12/24 09:47:58;;;;;;;0.00;0.00;;;;;;;12.52;100.00;99613.00;4818513;29;20034;-75
2023/12/24 09:50:24;;;;;;;0.00;0.00;;;;;;;12.40;100.00;99583.31;4828627;29;20038;-76
2023/12/24 09:52:49;;;;;;;0.00;0.00;;;;;;;12.59;100.00;99610.69;4816485;29;20030;-75
2023/12/24 09:55:15;;;;;;;0.00;0.00;;;;;;;12.55;100.00;99612.41;4816755;29;20045;-75
2023/12/24 09:57:40;;;;;;;0.00;0.00;;;;;;;12.64;100.00;99621.56;4814666;29;20042;-76
2023/12/24 10:00:12;;;;;;;0.00;0.00;;;;;;;12.66;100.00;99605.63;4811425;29;20034;-75
2023/12/24 10:02:37;;;;;;;0.00;0.00;;;;;;;12.53;100.00;99588.03;4829427;29;20092;-76
2023/12/24 10:05:03;;;;;;;0.00;0.00;;;;;;;12.50;100.00;99587.78;4817972;29;20060;-76
2023/12/24 10:07:39;;;;;;;0.00;0.00;;;;;;;12.66;100.00;99602.91;4826263;29;20049;-76
2023/12/24 10:10:09;;;;;;;0.00;0.00;;;;;;;12.70;100.00;99612.16;4812862;29;20120;-76
2023/12/24 10:12:44;;;;;;;0.00;0.00;;;;;;;12.74;100.00;99604.94;4811541;29;20039;-77
2023/12/24 10:15:22;;;;;;;0.00;0.00;;;;;;;12.78;100.00;99579.66;4799661;29;20688;-78
2023/12/24 10:17:52;;;;;;;0.03;0.03;;;;;;;12.89;100.00;99584.66;4816419;29;20058;-79
2023/12/24 10:20:37;;;;;;;0.00;0.00;;;;;;;13.32;100.00;99627.53;4816562;29;20137;-78
2023/12/24 10:23:09;;;;;;;0.00;0.00;;;;;;;13.78;100.00;99620.31;4818093;29;20486;-76
2023/12/24 10:25:45;;;;;;;0.00;0.00;;;;;;;14.53;100.00;99617.25;4794266;29;20526;-78
2023/12/24 10:28:10;;;;;;;0.00;0.00;;;;;;;16.08;93.86;99600.97;4826809;29;20046;-77
2023/12/24 10:30:38;;;;;;;0.00;0.00;;;;;;;17.35;83.03;99605.34;4800680;29;20083;-75
2023/12/24 10:33:12;;;;;;;0.00;0.00;;;;;;;18.45;76.79;99598.16;4798787;29;20026;-78
2023/12/24 10:35:38;;;;;;;0.00;0.00;;;;;;;17.23;77.61;99599.69;4800684;29;20119;-75
2023/12/24 10:38:15;;;;;;;0.00;0.00;;;;;;;15.91;84.45;99658.84;4815542;29;20061;-74
2023/12/24 10:40:41;;;;;;;0.00;0.00;;;;;;;14.96;89.94;99616.78;4820653;29;20121;-75
2023/12/24 10:43:06;;;;;;;0.00;0.00;;;;;;;14.48;94.02;99579.69;4814993;29;20057;-79
2023/12/24 10:45:32;;;;;;;0.00;0.00;;;;;;;14.41;96.68;99599.41;4801530;29;20081;-79
2023/12/24 10:48:03;;;;;;;0.00;0.00;;;;;;;14.18;98.27;99595.81;4812885;29;20034;-80
2023/12/24 10:50:38;;;;;;;;;;;;;;;;;;;;;
2023/12/24 10:53:04;;;;;;;0.00;0.00;;;;;;;14.05;98.82;99646.94;4815841;29;20019;-76
2023/12/24 10:59:19;;;;;;;0.03;0.03;;;;;;;15.48;91.30;99597.75;4814323;29;20035;-76
2023/12/24 11:01:54;;;;;;;0.00;0.00;;;;;;;16.46;84.95;99553.41;4818393;29;20164;-73
2023/12/24 11:05:01;;;;;;;;;;;;;;;;;;;;;
2023/12/24 11:07:49;;;;;;;0.00;0.00;;;;;;;17.56;77.02;99599.06;4799271;29;20045;-75
2023/12/24 11:10:40;;;;;;;0.00;0.00;;;;;;;17.57;77.30;99595.19;4805208;29;20026;-74
2023/12/24 11:13:42;;;;;;;;;;;;;;;;;;;;;
2023/12/24 11:16:32;;;;;;;0.00;0.00;;;;;;;18.14;73.66;99558.69;4803957;29;20056;-75
2023/12/24 11:18:58;;;;;;;0.00;0.00;;;;;;;18.51;71.65;99582.94;4807073;29;20039;-77
2023/12/24 11:22:06;;;;;;;;;;;;;;;;;;;;;
2023/12/24 11:24:43;;;;;;;0.00;0.00;;;;;;;17.75;72.41;99576.53;4815907;29;20049;-76
2023/12/24 11:27:21;;;;;;;;;;;;;;;;;;;;;
2023/12/24 11:30:19;;;;;;;;;;;;;;;;;;;;;
2023/12/24 11:32:47;;;;;;;0.00;0.00;;;;;;;16.29;79.01;99558.97;4807696;29;20021;-75
2023/12/24 11:35:52;;;;;;;0.00;0.00;;;;;;;16.38;79.50;99570.78;4813170;29;20038;-73
2023/12/24 11:39:13;;;;;;;0.00;0.00;;;;;;;16.17;79.12;99565.94;4806726;29;20402;-77
2023/12/24 11:41:57;;;;;;;0.00;0.00;;;;;;;15.67;80.56;99555.31;4807442;29;20041;-76
2023/12/24 11:44:41;;;;;;;0.00;0.00;;;;;;;15.54;81.85;99546.84;4817172;29;20031;-75
2023/12/24 11:47:20;;;;;;;0.00;0.00;;;;;;;15.85;81.59;99526.66;4831080;29;20114;-75
2023/12/24 11:50:21;;;;;;;0.00;0.00;;;;;;;16.45;78.35;99562.81;4824059;29;20038;-75
2023/12/24 11:53:05;;;;;;;;;;;;;;;;;;;;;
2023/12/24 11:55:30;;;;;;;0.00;0.00;;;;;;;15.97;79.21;99508.66;4814085;29;20033;-76
2023/12/24 11:57:56;;;;;;;0.00;0.00;;;;;;;15.91;79.94;99521.00;4831194;29;20026;-75
2023/12/24 12:00:32;;;;;;;0.00;0.00;;;;;;;16.29;77.37;99520.34;4807469;29;20030;-76
2023/12/24 12:03:04;;;;;;;0.00;0.00;;;;;;;16.29;77.89;99515.63;4821042;29;20069;-76
2023/12/24 12:05:32;;;;;;;0.00;0.00;;;;;;;18.56;71.21;99519.09;4823516;29;20030;-75
2023/12/24 12:07:57;;;;;;;0.00;0.00;;;;;;;20.09;61.50;99500.56;4826693;29;20031;-78
2023/12/24 12:11:05;;;;;;;0.00;0.00;;;;;;;19.99;61.22;99505.47;4804676;29;20037;-76
2023/12/24 12:16:49;;;;;;;0.00;0.00;;;;;;;17.64;67.69;99468.28;4820865;29;20503;-76
2023/12/24 12:19:55;;;;;;;;;;;;;;;;;;;;;
2023/12/24 12:22:34;;;;;;;;;;;;;;;;;;;;;
2023/12/24 12:25:39;;;;;;;0.00;0.00;;;;;;;15.64;80.51;99522.91;4805460;29;20031;-76
2023/12/24 12:28:40;;;;;;;;;;;;;;;;;;;;;
2023/12/24 12:31:55;;;;;;;;;;;;;;;;;;;;;
2023/12/24 12:34:28;;;;;;;0.00;0.00;;;;;;;13.05;100.00;99500.13;4806550;29;20056;-76
2023/12/24 12:37:07;;;;;;;;;;;;;;;;;;;;;
2023/12/24 12:39:34;;;;;;;0.00;0.00;;;;;;;12.38;100.00;99484.91;4811059;29;20030;-78
2023/12/24 12:42:05;;;;;;;0.00;0.00;;;;;;;12.28;100.00;99482.34;4812997;29;20432;-80
2023/12/24 12:44:31;;;;;;;0.00;0.00;;;;;;;12.10;100.00;99458.53;4803615;29;20109;-76
2023/12/24 12:47:06;;;;;;;0.10;0.10;;;;;;;12.20;100.00;99480.28;4811931;29;20471;-75
2023/12/24 12:52:59;;;;;;;0.00;0.00;;;;;;;12.18;100.00;99507.19;4797586;29;20046;-76
2023/12/24 12:55:32;;;;;;;0.00;0.00;;;;;;;12.12;100.00;99500.13;4805260;29;20047;-76
2023/12/24 12:58:29;;;;;;;0.00;0.00;;;;;;;12.13;100.00;99507.25;4819277;29;20038;-76
2023/12/24 13:01:28;;;;;;;;;;;;;;;;;;;;;
2023/12/24 13:04:09;;;;;;;;;;;;;;;;;;;;;
2023/12/24 13:06:50;;;;;;;0.00;0.00;;;;;;;11.91;100.00;99491.41;4809155;29;20026;-76
2023/12/24 13:09:16;;;;;;;0.00;0.00;;;;;;;11.83;100.00;99496.44;4823829;29;20042;-77
2023/12/24 13:11:41;;;;;;;0.00;0.00;;;;;;;11.79;100.00;99478.97;4810859;29;20038;-77
2023/12/24 13:14:09;;;;;;;0.00;0.00;;;;;;;11.99;100.00;99510.75;4809639;29;20042;-76
2023/12/24 13:16:35;;;;;;;0.00;0.00;;;;;;;11.85;100.00;99496.16;4815700;29;20042;-76
2023/12/24 13:19:23;;;;;;;0.00;0.00;;;;;;;11.99;100.00;99513.50;4815238;29;20049;-79
2023/12/24 13:21:49;;;;;;;0.00;0.00;;;;;;;11.87;100.00;99491.16;4803621;29;20046;-76
2023/12/24 13:24:15;;;;;;;0.00;0.00;;;;;;;11.91;100.00;99500.44;4815729;29;20046;-76
2023/12/24 13:26:43;;;;;;;0.00;0.00;;;;;;;11.87;100.00;99485.69;4814208;29;20482;-76
2023/12/24 13:29:12;;;;;;;0.00;0.00;;;;;;;11.92;100.00;99502.06;4811132;29;20042;-75
2023/12/24 13:31:37;;;;;;;0.00;0.00;;;;;;;11.99;100.00;99516.22;4822970;29;20046;-76
2023/12/24 13:34:05;;;;;;;0.00;0.00;;;;;;;11.88;100.00;99490.06;4810655;29;20374;-75
2023/12/24 13:36:31;;;;;;;0.00;0.00;;;;;;;11.99;100.00;99508.00;4818098;29;20041;-75
2023/12/24 13:38:58;;;;;;;0.00;0.00;;;;;;;12.15;100.00;99515.97;4819453;29;20034;-75
2023/12/24 13:41:24;;;;;;;0.00;0.00;;;;;;;12.02;100.00;99490.97;4807921;29;20038;-76
2023/12/24 13:43:52;;;;;;;0.00;0.00;;;;;;;12.17;100.00;99500.06;4802928;29;20039;-76
2023/12/24 13:46:25;;;;;;;0.00;0.00;;;;;;;12.47;100.00;99519.84;4822995;29;20031;-76
2023/12/24 13:48:50;;;;;;;0.00;0.00;;;;;;;12.36;100.00;99495.34;4823603;29;20034;-75
2023/12/24 13:51:19;;;;;;;0.00;0.00;;;;;;;12.47;100.00;99522.59;4801900;29;20117;-75
2023/12/24 13:53:49;;;;;;;0.00;0.00;;;;;;;12.22;100.00;99508.19;4806597;29;20049;-75
2023/12/24 13:56:15;;;;;;;0.00;0.00;;;;;;;12.23;100.00;99523.53;4813680;29;20402;-74
2023/12/24 13:58:41;;;;;;;0.00;0.00;;;;;;;12.07;100.00;99516.66;4809712;29;20038;-76